sensor_id;sensor_type;location;lat;lon;timestamp;pressure;altitude;pressure_sealevel;temperature;humidity
35551;BME280;21655;46.056;13.616;2023-02-28T00:00:06;101018.53;;;4.13;100.00
35551;BME280;21655;46.056;13.616;2023-02-28T00:02:42;101018.75;;;4.10;100.00
35551;BME280;21655;46.056;13.616;2023-02-28T00:05:10;101017.53;;;4.14;100.00
35551;BME280;21655;46.056;13.616;2023-02-28T00:07:36;101020.63;;;4.09;100.00
35551;BME280;21655;46.056;13.616;2023-02-28T00:10:06;101016.13;;;4.19;100.00
35551;BME280;21655;46.056;13.616;2023-02-28T00:12:33;101004.41;;;4.17;100.00
35551;BME280;21655;46.056;13.616;2023-02-28T00:14:59;101028.00;;;4.20;100.00
35551;BME280;21655;46.056;13.616;2023-02-28T00:17:26;101023.25;;;4.22;100.00
35551;BME280;21655;46.056;13.616;2023-02-28T00:19:51;101021.75;;;4.18;100.00
35551;BME280;21655;46.056;13.616;2023-02-28T00:22:19;101028.72;;;4.22;100.00
35551;BME280;21655;46.056;13.616;2023-02-28T00:24:45;101008.78;;;4.20;100.00
35551;BME280;21655;46.056;13.616;2023-02-28T00:27:10;101021.50;;;4.21;100.00
35551;BME280;21655;46.056;13.616;2023-02-28T00:29:37;101011.25;;;4.23;100.00
35551;BME280;21655;46.056;13.616;2023-02-28T00:32:03;101018.00;;;4.19;100.00
35551;BME280;21655;46.056;13.616;2023-02-28T00:34:29;101042.34;;;4.23;100.00
35551;BME280;21655;46.056;13.616;2023-02-28T00:36:54;101040.34;;;4.25;100.00
35551;BME280;21655;46.056;13.616;2023-02-28T00:39:20;101046.09;;;4.22;100.00
35551;BME280;21655;46.056;13.616;2023-02-28T00:41:46;101039.59;;;4.23;100.00
35551;BME280;21655;46.056;13.616;2023-02-28T00:44:11;101041.19;;;4.26;100.00
35551;BME280;21655;46.056;13.616;2023-02-28T00:46:37;101056.19;;;4.22;100.00
35551;BME280;21655;46.056;13.616;2023-02-28T00:49:02;101048.44;;;4.27;100.00
35551;BME280;21655;46.056;13.616;2023-02-28T00:51:28;101052.06;;;4.27;100.00
35551;BME280;21655;46.056;13.616;2023-02-28T00:53:53;101058.56;;;4.26;100.00
35551;BME280;21655;46.056;13.616;2023-02-28T00:56:19;101050.31;;;4.26;100.00
35551;BME280;21655;46.056;13.616;2023-02-28T00:58:45;101047.69;;;4.25;100.00
35551;BME280;21655;46.056;13.616;2023-02-28T01:01:10;101048.59;;;4.25;100.00
35551;BME280;21655;46.056;13.616;2023-02-28T01:03:36;101040.09;;;4.28;99.57
35551;BME280;21655;46.056;13.616;2023-02-28T01:06:01;101049.97;;;4.31;99.28
35551;BME280;21655;46.056;13.616;2023-02-28T01:08:27;101049.81;;;4.32;99.65
35551;BME280;21655;46.056;13.616;2023-02-28T01:10:54;101051.31;;;4.25;98.82
35551;BME280;21655;46.056;13.616;2023-02-28T01:13:20;101048.69;;;4.24;99.40
35551;BME280;21655;46.056;13.616;2023-02-28T01:15:51;101061.31;;;4.26;99.19
35551;BME280;21655;46.056;13.616;2023-02-28T01:18:17;101061.16;;;4.28;99.25
35551;BME280;21655;46.056;13.616;2023-02-28T01:20:43;101058.56;;;4.26;99.02
35551;BME280;21655;46.056;13.616;2023-02-28T01:23:09;101069.03;;;4.21;99.17
35551;BME280;21655;46.056;13.616;2023-02-28T01:25:36;101074.53;;;4.21;99.58
35551;BME280;21655;46.056;13.616;2023-02-28T01:28:01;101061.66;;;4.22;99.89
35551;BME280;21655;46.056;13.616;2023-02-28T01:30:27;101044.44;;;4.20;99.47
35551;BME280;21655;46.056;13.616;2023-02-28T01:32:52;101063.31;;;4.24;99.46
35551;BME280;21655;46.056;13.616;2023-02-28T01:35:19;101056.06;;;4.23;98.25
35551;BME280;21655;46.056;13.616;2023-02-28T01:37:44;101050.44;;;4.25;98.92
35551;BME280;21655;46.056;13.616;2023-02-28T01:40:10;101067.16;;;4.22;98.18
35551;BME280;21655;46.056;13.616;2023-02-28T01:42:36;101058.56;;;4.26;97.39
35551;BME280;21655;46.056;13.616;2023-02-28T01:45:04;101045.84;;;4.25;96.67
35551;BME280;21655;46.056;13.616;2023-02-28T01:47:35;101053.81;;;4.28;96.41
35551;BME280;21655;46.056;13.616;2023-02-28T01:50:05;101055.91;;;4.25;98.40
35551;BME280;21655;46.056;13.616;2023-02-28T01:52:32;101046.09;;;4.22;98.36
35551;BME280;21655;46.056;13.616;2023-02-28T01:54:59;101038.25;;;4.29;98.20
35551;BME280;21655;46.056;13.616;2023-02-28T01:57:30;101045.47;;;4.30;97.82
35551;BME280;21655;46.056;13.616;2023-02-28T02:00:06;101031.47;;;4.22;98.98
35551;BME280;21655;46.056;13.616;2023-02-28T02:02:33;101036.84;;;4.23;97.89
35551;BME280;21655;46.056;13.616;2023-02-28T02:05:12;101045.47;;;4.30;96.82
35551;BME280;21655;46.056;13.616;2023-02-28T02:07:41;101054.81;;;4.27;98.39
35551;BME280;21655;46.056;13.616;2023-02-28T02:10:16;101037.84;;;4.22;97.55
35551;BME280;21655;46.056;13.616;2023-02-28T02:36:06;101055.66;;;4.28;98.77
35551;BME280;21655;46.056;13.616;2023-02-28T02:41:54;101048.59;;;4.25;100.00
35551;BME280;21655;46.056;13.616;2023-02-28T02:44:47;101059.56;;;4.25;100.00
35551;BME280;21655;46.056;13.616;2023-02-28T02:47:18;101046.59;;;4.27;100.00
35551;BME280;21655;46.056;13.616;2023-02-28T02:49:51;101053.19;;;4.25;100.00
35551;BME280;21655;46.056;13.616;2023-02-28T02:52:21;101054.91;;;4.26;100.00
35551;BME280;21655;46.056;13.616;2023-02-28T02:54:50;101058.31;;;4.29;98.86
35551;BME280;21655;46.056;13.616;2023-02-28T02:57:29;101077.63;;;4.28;99.86
35551;BME280;21655;46.056;13.616;2023-02-28T02:59:56;101071.16;;;4.29;100.00
35551;BME280;21655;46.056;13.616;2023-02-28T03:02:22;101064.16;;;4.25;100.00
35551;BME280;21655;46.056;13.616;2023-02-28T03:04:52;101058.31;;;4.29;100.00
35551;BME280;21655;46.056;13.616;2023-02-28T03:07:19;101087.50;;;4.30;100.00
35551;BME280;21655;46.056;13.616;2023-02-28T03:09:56;101055.56;;;4.29;100.00
35551;BME280;21655;46.056;13.616;2023-02-28T03:12:47;101075.78;;;4.28;100.00
35551;BME280;21655;46.056;13.616;2023-02-28T03:15:43;101073.91;;;4.29;100.00
35551;BME280;21655;46.056;13.616;2023-02-28T03:18:27;101084.63;;;4.32;100.00
35551;BME280;21655;46.056;13.616;2023-02-28T03:21:21;101091.34;;;4.28;100.00
35551;BME280;21655;46.056;13.616;2023-02-28T03:24:02;101087.75;;;4.27;100.00
35551;BME280;21655;46.056;13.616;2023-02-28T03:26:31;101082.16;;;4.29;100.00
35551;BME280;21655;46.056;13.616;2023-02-28T03:32:02;101088.84;;;4.25;100.00
35551;BME280;21655;46.056;13.616;2023-02-28T03:34:33;101074.28;;;4.24;100.00
35551;BME280;21655;46.056;13.616;2023-02-28T03:37:04;101079.78;;;4.24;100.00
35551;BME280;21655;46.056;13.616;2023-02-28T03:40:10;101080.78;;;4.23;100.00
35551;BME280;21655;46.056;13.616;2023-02-28T03:42:39;101072.28;;;4.26;100.00
35551;BME280;21655;46.056;13.616;2023-02-28T03:45:21;101055.31;;;4.21;100.00
35551;BME280;21655;46.056;13.616;2023-02-28T03:48:21;101070.41;;;4.16;100.00
35551;BME280;21655;46.056;13.616;2023-02-28T03:50:47;101058.44;;;4.17;100.00
35551;BME280;21655;46.056;13.616;2023-02-28T03:56:07;101061.16;;;4.17;100.00
35551;BME280;21655;46.056;13.616;2023-02-28T03:58:58;101070.88;;;4.10;100.00
35551;BME280;21655;46.056;13.616;2023-02-28T04:01:41;101070.75;;;4.11;100.00
35551;BME280;21655;46.056;13.616;2023-02-28T04:04:11;101063.03;;;4.05;100.00
35551;BME280;21655;46.056;13.616;2023-02-28T04:06:38;101065.13;;;4.02;100.00
35551;BME280;21655;46.056;13.616;2023-02-28T04:09:05;101071.47;;;4.02;100.00
35551;BME280;21655;46.056;13.616;2023-02-28T04:14:02;101046.19;;;3.99;100.00
35551;BME280;21655;46.056;13.616;2023-02-28T04:16:29;101056.25;;;3.98;100.00
35551;BME280;21655;46.056;13.616;2023-02-28T04:18:54;101055.78;;;3.93;100.00
35551;BME280;21655;46.056;13.616;2023-02-28T04:21:28;101047.91;;;3.89;100.00
35551;BME280;21655;46.056;13.616;2023-02-28T04:23:55;101049.00;;;3.86;100.00
35551;BME280;21655;46.056;13.616;2023-02-28T04:26:20;101036.44;;;3.84;100.00
35551;BME280;21655;46.056;13.616;2023-02-28T04:28:46;101035.53;;;3.83;100.00
35551;BME280;21655;46.056;13.616;2023-02-28T04:31:11;101054.63;;;3.85;100.00
35551;BME280;21655;46.056;13.616;2023-02-28T04:33:36;101056.38;;;3.86;100.00
35551;BME280;21655;46.056;13.616;2023-02-28T04:36:05;101051.25;;;3.81;100.00
35551;BME280;21655;46.056;13.616;2023-02-28T04:38:37;101053.88;;;3.83;100.00
35551;BME280;21655;46.056;13.616;2023-02-28T04:41:03;101050.25;;;3.82;100.00
35551;BME280;21655;46.056;13.616;2023-02-28T04:43:30;101060.34;;;3.82;100.00
35551;BME280;21655;46.056;13.616;2023-02-28T04:45:58;101058.22;;;3.85;100.00
35551;BME280;21655;46.056;13.616;2023-02-28T04:48:24;101033.53;;;3.85;100.00
35551;BME280;21655;46.056;13.616;2023-02-28T04:50:51;101045.66;;;3.83;100.00
35551;BME280;21655;46.056;13.616;2023-02-28T04:53:17;101064.50;;;3.87;100.00
35551;BME280;21655;46.056;13.616;2023-02-28T04:55:43;101058.88;;;3.89;100.00
35551;BME280;21655;46.056;13.616;2023-02-28T04:58:08;101049.78;;;3.88;100.00
35551;BME280;21655;46.056;13.616;2023-02-28T05:00:34;101066.59;;;3.84;100.00
35551;BME280;21655;46.056;13.616;2023-02-28T05:03:00;101061.97;;;3.84;100.00
35551;BME280;21655;46.056;13.616;2023-02-28T05:05:25;101057.88;;;3.79;100.00
35551;BME280;21655;46.056;13.616;2023-02-28T05:07:50;101066.34;;;3.87;100.00
35551;BME280;21655;46.056;13.616;2023-02-28T05:10:16;101055.63;;;3.84;100.00
35551;BME280;21655;46.056;13.616;2023-02-28T05:12:42;101062.84;;;3.85;100.00
35551;BME280;21655;46.056;13.616;2023-02-28T05:15:12;101072.72;;;3.87;100.00
35551;BME280;21655;46.056;13.616;2023-02-28T05:17:38;101072.59;;;3.89;100.00
35551;BME280;21655;46.056;13.616;2023-02-28T05:20:03;101077.22;;;3.88;100.00
35551;BME280;21655;46.056;13.616;2023-02-28T05:22:30;101077.22;;;3.88;100.00
35551;BME280;21655;46.056;13.616;2023-02-28T05:24:55;101082.06;;;3.85;100.00
35551;BME280;21655;46.056;13.616;2023-02-28T05:27:21;101077.66;;;3.82;100.00
35551;BME280;21655;46.056;13.616;2023-02-28T05:29:46;101067.84;;;3.80;100.00
35551;BME280;21655;46.056;13.616;2023-02-28T05:32:13;101061.47;;;3.79;100.00
35551;BME280;21655;46.056;13.616;2023-02-28T05:34:39;101065.94;;;3.80;100.00
35551;BME280;21655;46.056;13.616;2023-02-28T05:37:06;101069.78;;;3.78;100.00
35551;BME280;21655;46.056;13.616;2023-02-28T05:39:32;101065.09;;;3.80;100.00
35551;BME280;21655;46.056;13.616;2023-02-28T05:41:58;101064.97;;;3.81;100.00
35551;BME280;21655;46.056;13.616;2023-02-28T05:44:24;101077.81;;;3.81;100.00
35551;BME280;21655;46.056;13.616;2023-02-28T05:46:49;101071.34;;;3.82;100.00
35551;BME280;21655;46.056;13.616;2023-02-28T05:49:15;101048.75;;;3.78;100.00
35551;BME280;21655;46.056;13.616;2023-02-28T05:51:40;101053.47;;;3.76;100.00
35551;BME280;21655;46.056;13.616;2023-02-28T05:54:06;101081.56;;;3.80;100.00
35551;BME280;21655;46.056;13.616;2023-02-28T05:56:32;101079.56;;;3.82;100.00
35551;BME280;21655;46.056;13.616;2023-02-28T05:58:59;101069.69;;;3.79;100.00
35551;BME280;21655;46.056;13.616;2023-02-28T06:01:34;101067.59;;;3.83;100.00
35551;BME280;21655;46.056;13.616;2023-02-28T06:04:01;101076.56;;;3.85;100.00
35551;BME280;21655;46.056;13.616;2023-02-28T06:06:27;101086.91;;;3.81;100.00
35551;BME280;21655;46.056;13.616;2023-02-28T06:08:52;101081.41;;;3.81;100.00
35551;BME280;21655;46.056;13.616;2023-02-28T06:11:18;101070.19;;;3.84;100.00
35551;BME280;21655;46.056;13.616;2023-02-28T06:13:45;101099.38;;;3.85;100.00
35551;BME280;21655;46.056;13.616;2023-02-28T06:16:11;101065.59;;;3.85;100.00
35551;BME280;21655;46.056;13.616;2023-02-28T06:18:37;101089.94;;;3.89;100.00
35551;BME280;21655;46.056;13.616;2023-02-28T06:21:02;101086.44;;;3.87;100.00
35551;BME280;21655;46.056;13.616;2023-02-28T06:23:28;101103.03;;;3.97;100.00
35551;BME280;21655;46.056;13.616;2023-02-28T06:25:54;101088.34;;;3.98;100.00
35551;BME280;21655;46.056;13.616;2023-02-28T06:28:23;101079.34;;;3.96;100.00
35551;BME280;21655;46.056;13.616;2023-02-28T06:30:49;101096.41;;;3.99;100.00
35551;BME280;21655;46.056;13.616;2023-02-28T06:33:15;101088.09;;;4.01;100.00
35551;BME280;21655;46.056;13.616;2023-02-28T06:35:44;101092.56;;;4.02;100.00
35551;BME280;21655;46.056;13.616;2023-02-28T06:38:09;101124.50;;;4.03;100.00
35551;BME280;21655;46.056;13.616;2023-02-28T06:40:36;101108.78;;;4.05;100.00
35551;BME280;21655;46.056;13.616;2023-02-28T06:43:02;101093.81;;;4.09;100.00
35551;BME280;21655;46.056;13.616;2023-02-28T06:45:28;101099.56;;;4.06;100.00
35551;BME280;21655;46.056;13.616;2023-02-28T06:47:53;101092.81;;;4.10;100.00
35551;BME280;21655;46.056;13.616;2023-02-28T06:50:19;101109.28;;;4.10;100.00
35551;BME280;21655;46.056;13.616;2023-02-28T06:52:45;101106.19;;;4.14;100.00
35551;BME280;21655;46.056;13.616;2023-02-28T06:55:11;101113.41;;;4.15;100.00
35551;BME280;21655;46.056;13.616;2023-02-28T06:57:36;101109.31;;;4.21;100.00
35551;BME280;21655;46.056;13.616;2023-02-28T07:00:08;101109.97;;;4.24;100.00
35551;BME280;21655;46.056;13.616;2023-02-28T07:02:37;101126.72;;;4.76;100.00
35551;BME280;21655;46.056;13.616;2023-02-28T07:05:04;101107.44;;;5.20;100.00
35551;BME280;21655;46.056;13.616;2023-02-28T07:07:29;101101.69;;;5.12;100.00
35551;BME280;21655;46.056;13.616;2023-02-28T07:09:55;101124.34;;;4.83;100.00
35551;BME280;21655;46.056;13.616;2023-02-28T07:12:21;101119.34;;;4.66;100.00
35551;BME280;21655;46.056;13.616;2023-02-28T07:14:47;101136.19;;;4.61;100.00
35551;BME280;21655;46.056;13.616;2023-02-28T07:17:13;101105.72;;;4.64;100.00
35551;BME280;21655;46.056;13.616;2023-02-28T07:19:39;101117.38;;;4.79;100.00
35551;BME280;21655;46.056;13.616;2023-02-28T07:22:05;101118.34;;;4.89;100.00
35551;BME280;21655;46.056;13.616;2023-02-28T07:24:31;101126.59;;;4.89;100.00
35551;BME280;21655;46.056;13.616;2023-02-28T07:26:56;101106.97;;;4.82;100.00
35551;BME280;21655;46.056;13.616;2023-02-28T07:29:22;101120.44;;;4.96;100.00
35551;BME280;21655;46.056;13.616;2023-02-28T07:31:47;101125.47;;;4.80;100.00
35551;BME280;21655;46.056;13.616;2023-02-28T07:34:13;101121.34;;;4.75;100.00
35551;BME280;21655;46.056;13.616;2023-02-28T07:36:39;101107.00;;;4.71;100.00
35551;BME280;21655;46.056;13.616;2023-02-28T07:39:04;101106.19;;;5.13;100.00
35551;BME280;21655;46.056;13.616;2023-02-28T07:41:30;101132.47;;;5.91;100.00
35551;BME280;21655;46.056;13.616;2023-02-28T07:43:58;101112.81;;;6.36;100.00
35551;BME280;21655;46.056;13.616;2023-02-28T07:46:25;101118.84;;;5.89;100.00
35551;BME280;21655;46.056;13.616;2023-02-28T07:48:51;101129.28;;;6.27;100.00
35551;BME280;21655;46.056;13.616;2023-02-28T07:51:18;101116.69;;;6.54;100.00
35551;BME280;21655;46.056;13.616;2023-02-28T07:53:44;101131.53;;;6.93;98.64
35551;BME280;21655;46.056;13.616;2023-02-28T07:56:09;101122.41;;;6.92;97.11
35551;BME280;21655;46.056;13.616;2023-02-28T07:58:36;101111.59;;;7.19;94.67
35551;BME280;21655;46.056;13.616;2023-02-28T08:01:09;101129.56;;;7.14;93.31
35551;BME280;21655;46.056;13.616;2023-02-28T08:03:36;101116.41;;;6.87;95.30
35551;BME280;21655;46.056;13.616;2023-02-28T08:06:06;101134.56;;;6.39;98.35
35551;BME280;21655;46.056;13.616;2023-02-28T08:08:32;101118.69;;;7.03;97.51
35551;BME280;21655;46.056;13.616;2023-02-28T08:11:02;101113.22;;;7.22;93.60
35551;BME280;21655;46.056;13.616;2023-02-28T08:13:29;101114.91;;;7.04;93.65
35551;BME280;21655;46.056;13.616;2023-02-28T08:15:55;101133.31;;;7.03;94.34
35551;BME280;21655;46.056;13.616;2023-02-28T08:18:22;101116.28;;;6.89;93.44
35551;BME280;21655;46.056;13.616;2023-02-28T08:20:47;101123.66;;;7.18;93.08
35551;BME280;21655;46.056;13.616;2023-02-28T08:23:13;101134.84;;;7.17;91.85
35551;BME280;21655;46.056;13.616;2023-02-28T08:25:39;101117.25;;;6.78;93.59
35551;BME280;21655;46.056;13.616;2023-02-28T08:28:04;101149.28;;;6.49;97.70
35551;BME280;21655;46.056;13.616;2023-02-28T08:30:30;101137.56;;;6.77;98.68
35551;BME280;21655;46.056;13.616;2023-02-28T08:32:55;101140.97;;;7.00;94.33
35551;BME280;21655;46.056;13.616;2023-02-28T08:35:21;101131.34;;;7.24;91.65
35551;BME280;21655;46.056;13.616;2023-02-28T08:37:48;101158.16;;;7.61;88.62
35551;BME280;21655;46.056;13.616;2023-02-28T08:40:14;101138.75;;;7.82;85.49
35551;BME280;21655;46.056;13.616;2023-02-28T08:42:44;101152.38;;;7.74;83.51
35551;BME280;21655;46.056;13.616;2023-02-28T08:45:10;101172.75;;;6.94;89.18
35551;BME280;21655;46.056;13.616;2023-02-28T08:47:36;101146.53;;;6.70;95.46
35551;BME280;21655;46.056;13.616;2023-02-28T08:50:02;101145.28;;;6.83;96.83
35551;BME280;21655;46.056;13.616;2023-02-28T08:52:27;101145.72;;;7.18;94.76
35551;BME280;21655;46.056;13.616;2023-02-28T08:54:53;101130.03;;;7.77;90.64
35551;BME280;21655;46.056;13.616;2023-02-28T08:57:18;101167.25;;;8.49;83.90
35551;BME280;21655;46.056;13.616;2023-02-28T08:59:44;101158.13;;;8.94;79.08
35551;BME280;21655;46.056;13.616;2023-02-28T09:02:13;101158.09;;;9.04;76.25
35551;BME280;21655;46.056;13.616;2023-02-28T09:04:39;101164.94;;;9.00;75.64
35551;BME280;21655;46.056;13.616;2023-02-28T09:07:04;101153.84;;;9.63;73.54
35551;BME280;21655;46.056;13.616;2023-02-28T09:09:30;101141.38;;;8.40;74.46
35551;BME280;21655;46.056;13.616;2023-02-28T09:11:56;101150.25;;;8.99;74.83
35551;BME280;21655;46.056;13.616;2023-02-28T09:14:22;101154.47;;;9.57;72.62
35551;BME280;21655;46.056;13.616;2023-02-28T09:16:47;101147.78;;;10.21;68.75
35551;BME280;21655;46.056;13.616;2023-02-28T09:19:13;101149.03;;;10.27;65.96
35551;BME280;21655;46.056;13.616;2023-02-28T09:21:38;101138.09;;;10.08;67.42
35551;BME280;21655;46.056;13.616;2023-02-28T09:24:04;101166.06;;;9.43;68.23
35551;BME280;21655;46.056;13.616;2023-02-28T09:26:30;101172.66;;;8.96;71.59
35551;BME280;21655;46.056;13.616;2023-02-28T09:28:56;101163.59;;;8.67;73.91
35551;BME280;21655;46.056;13.616;2023-02-28T09:31:26;101176.28;;;8.41;76.79
35551;BME280;21655;46.056;13.616;2023-02-28T09:33:54;101169.84;;;8.03;79.91
35551;BME280;21655;46.056;13.616;2023-02-28T09:36:21;101152.25;;;7.94;81.54
35551;BME280;21655;46.056;13.616;2023-02-28T09:38:46;101167.97;;;8.03;83.38
35551;BME280;21655;46.056;13.616;2023-02-28T09:41:15;101186.09;;;7.77;84.59
35551;BME280;21655;46.056;13.616;2023-02-28T09:43:46;101158.78;;;8.69;80.63
35551;BME280;21655;46.056;13.616;2023-02-28T09:48:57;101172.00;;;9.75;72.52
35551;BME280;21655;46.056;13.616;2023-02-28T09:54:13;101165.25;;;10.04;69.51
35551;BME280;21655;46.056;13.616;2023-02-28T09:56:45;101185.91;;;10.45;68.06
35551;BME280;21655;46.056;13.616;2023-02-28T09:59:30;101185.56;;;9.95;68.13
35551;BME280;21655;46.056;13.616;2023-02-28T10:04:47;101179.44;;;11.97;62.23
35551;BME280;21655;46.056;13.616;2023-02-28T10:09:57;101165.47;;;10.63;65.58
35551;BME280;21655;46.056;13.616;2023-02-28T10:12:23;101182.22;;;10.36;65.51
35551;BME280;21655;46.056;13.616;2023-02-28T10:14:52;101168.06;;;10.39;65.24
35551;BME280;21655;46.056;13.616;2023-02-28T10:17:21;101181.41;;;10.09;65.78
35551;BME280;21655;46.056;13.616;2023-02-28T10:20:07;101178.34;;;10.29;65.32
35551;BME280;21655;46.056;13.616;2023-02-28T10:22:50;101180.72;;;10.24;64.64
35551;BME280;21655;46.056;13.616;2023-02-28T10:25:23;101163.78;;;10.70;63.04
35551;BME280;21655;46.056;13.616;2023-02-28T10:27:50;101188.25;;;10.32;65.07
35551;BME280;21655;46.056;13.616;2023-02-28T10:30:18;101187.41;;;10.74;64.72
35551;BME280;21655;46.056;13.616;2023-02-28T10:32:50;101178.50;;;10.63;63.75
35551;BME280;21655;46.056;13.616;2023-02-28T10:35:21;101178.88;;;11.52;61.47
35551;BME280;21655;46.056;13.616;2023-02-28T10:37:54;101180.53;;;11.62;59.21
35551;BME280;21655;46.056;13.616;2023-02-28T10:42:59;101182.28;;;11.63;59.04
35551;BME280;21655;46.056;13.616;2023-02-28T10:45:26;101182.16;;;12.62;56.52
35551;BME280;21655;46.056;13.616;2023-02-28T10:48:02;101170.78;;;12.08;57.18
35551;BME280;21655;46.056;13.616;2023-02-28T10:50:33;101165.78;;;12.43;55.78
35551;BME280;21655;46.056;13.616;2023-02-28T11:04:44;101167.00;;;12.33;54.27
35551;BME280;21655;46.056;13.616;2023-02-28T11:07:21;101149.00;;;11.79;56.44
35551;BME280;21655;46.056;13.616;2023-02-28T11:09:51;101136.22;;;12.58;53.53
35551;BME280;21655;46.056;13.616;2023-02-28T11:12:25;101144.75;;;12.97;53.25
35551;BME280;21655;46.056;13.616;2023-02-28T11:14:57;101144.72;;;12.09;52.44
35551;BME280;21655;46.056;13.616;2023-02-28T11:17:28;101138.47;;;12.15;53.53
35551;BME280;21655;46.056;13.616;2023-02-28T11:20:04;101136.25;;;12.66;51.89
35551;BME280;21655;46.056;13.616;2023-02-28T11:22:36;101128.75;;;12.75;52.37
35551;BME280;21655;46.056;13.616;2023-02-28T11:27:52;101141.22;;;13.26;51.06
35551;BME280;21655;46.056;13.616;2023-02-28T11:30:25;101114.09;;;13.13;50.13
35551;BME280;21655;46.056;13.616;2023-02-28T11:32:51;101120.88;;;11.90;52.71
35551;BME280;21655;46.056;13.616;2023-02-28T11:35:23;101121.34;;;13.37;51.15
35551;BME280;21655;46.056;13.616;2023-02-28T11:37:49;101120.41;;;12.75;50.66
35551;BME280;21655;46.056;13.616;2023-02-28T11:40:19;101115.41;;;11.57;52.29
35551;BME280;21655;46.056;13.616;2023-02-28T12:05:21;101085.59;;;13.41;48.49
35551;BME280;21655;46.056;13.616;2023-02-28T12:11:23;101083.41;;;13.28;46.68
35551;BME280;21655;46.056;13.616;2023-02-28T12:13:33;101079.97;;;13.18;47.15
35551;BME280;21655;46.056;13.616;2023-02-28T12:27:28;101056.03;;;12.78;47.36
35551;BME280;21655;46.056;13.616;2023-02-28T12:29:57;101042.97;;;13.32;46.91
35551;BME280;21655;46.056;13.616;2023-02-28T12:32:39;101033.78;;;12.86;46.61
35551;BME280;21655;46.056;13.616;2023-02-28T12:35:11;101016.56;;;13.81;46.10
35551;BME280;21655;46.056;13.616;2023-02-28T12:37:46;101037.41;;;12.86;46.14
35551;BME280;21655;46.056;13.616;2023-02-28T12:40:16;101025.72;;;13.37;45.84
35551;BME280;21655;46.056;13.616;2023-02-28T12:42:51;101022.19;;;13.20;46.37
35551;BME280;21655;46.056;13.616;2023-02-28T12:45:27;101034.41;;;13.42;45.28
35551;BME280;21655;46.056;13.616;2023-02-28T12:48:04;101024.63;;;13.76;44.25
35551;BME280;21655;46.056;13.616;2023-02-28T12:50:32;101027.75;;;13.20;44.29
35551;BME280;21655;46.056;13.616;2023-02-28T12:53:03;101022.03;;;13.97;44.12
35551;BME280;21655;46.056;13.616;2023-02-28T12:56:24;101017.16;;;13.08;44.87
35551;BME280;21655;46.056;13.616;2023-02-28T12:58:47;101014.69;;;12.59;46.71
35551;BME280;21655;46.056;13.616;2023-02-28T13:04:35;101006.59;;;14.32;43.37
35551;BME280;21655;46.056;13.616;2023-02-28T13:09:33;100995.03;;;13.98;42.74
35551;BME280;21655;46.056;13.616;2023-02-28T13:11:58;100992.88;;;14.45;42.92
35551;BME280;21655;46.056;13.616;2023-02-28T13:14:36;100981.00;;;13.83;43.39
35551;BME280;21655;46.056;13.616;2023-02-28T13:19:40;100979.69;;;13.49;44.36
35551;BME280;21655;46.056;13.616;2023-02-28T13:22:20;100977.19;;;13.62;43.95
35551;BME280;21655;46.056;13.616;2023-02-28T13:25:01;100986.19;;;13.11;44.99
35551;BME280;21655;46.056;13.616;2023-02-28T13:27:37;100977.25;;;13.23;44.48
35551;BME280;21655;46.056;13.616;2023-02-28T13:39:03;100971.72;;;12.69;45.42
35551;BME280;21655;46.056;13.616;2023-02-28T13:44:21;100959.25;;;14.24;44.69
35551;BME280;21655;46.056;13.616;2023-02-28T13:49:28;100952.69;;;12.81;44.90
35551;BME280;21655;46.056;13.616;2023-02-28T13:55:00;100974.56;;;13.00;45.28
35551;BME280;21655;46.056;13.616;2023-02-28T14:03:23;100950.59;;;12.36;46.37
35551;BME280;21655;46.056;13.616;2023-02-28T14:08:47;100948.03;;;12.81;46.55
35551;BME280;21655;46.056;13.616;2023-02-28T14:11:36;100954.06;;;13.31;44.80
35551;BME280;21655;46.056;13.616;2023-02-28T14:14:03;100942.78;;;13.24;44.47
35551;BME280;21655;46.056;13.616;2023-02-28T14:16:41;100953.31;;;12.60;45.72
35551;BME280;21655;46.056;13.616;2023-02-28T14:19:26;100961.78;;;11.96;46.69
35551;BME280;21655;46.056;13.616;2023-02-28T14:27:42;100948.91;;;12.27;46.65
35551;BME280;21655;46.056;13.616;2023-02-28T14:38:17;100939.66;;;11.23;48.76
35551;BME280;21655;46.056;13.616;2023-02-28T14:40:45;100938.47;;;10.43;51.00
35551;BME280;21655;46.056;13.616;2023-02-28T14:43:24;100942.75;;;10.04;52.29
35551;BME280;21655;46.056;13.616;2023-02-28T14:45:56;100942.59;;;9.88;52.89
35551;BME280;21655;46.056;13.616;2023-02-28T14:48:23;100955.16;;;9.57;54.22
35551;BME280;21655;46.056;13.616;2023-02-28T14:50:56;100949.56;;;9.49;54.64
35551;BME280;21655;46.056;13.616;2023-02-28T14:53:26;100934.91;;;9.22;55.45
35551;BME280;21655;46.056;13.616;2023-02-28T14:55:55;100942.50;;;9.02;56.41
35551;BME280;21655;46.056;13.616;2023-02-28T14:58:25;100948.28;;;9.09;56.88
35551;BME280;21655;46.056;13.616;2023-02-28T15:00:53;100949.94;;;9.19;57.03
35551;BME280;21655;46.056;13.616;2023-02-28T15:03:28;100939.97;;;9.09;58.11
35551;BME280;21655;46.056;13.616;2023-02-28T15:05:57;100933.72;;;9.24;58.30
35551;BME280;21655;46.056;13.616;2023-02-28T15:08:23;100936.41;;;9.51;58.35
35551;BME280;21655;46.056;13.616;2023-02-28T15:10:58;100932.72;;;9.42;58.01
35551;BME280;21655;46.056;13.616;2023-02-28T15:13:51;100935.06;;;9.03;59.30
35551;BME280;21655;46.056;13.616;2023-02-28T15:16:17;100956.03;;;8.78;60.69
35551;BME280;21655;46.056;13.616;2023-02-28T15:18:50;100936.94;;;8.85;61.80
35551;BME280;21655;46.056;13.616;2023-02-28T15:21:25;100949.28;;;8.90;61.89